Date,TemperatureHighF,TemperatureAvgF,TemperatureLowF,DewpointHighF,DewpointAvgF,DewpointLowF,HumidityHigh,HumidityAvg,HumidityLow,PressureMaxIn,PressureMinIn,WindSpeedMaxMPH,WindSpeedAvgMPH,GustSpeedMaxMPH,PrecipitationSumIn
2013-2-1,67,57,50,56,50,42,94,77,49,30.23,30.15,8,2,13,0.00
2013-2-2,72,61,55,57,50,42,88,66,35,30.25,30.16,10,2,13,0.00
2013-2-3,63,56,49,57,52,45,94,85,69,30.20,30.05,7,2,11,0.00
2013-2-4,62,53,44,56,49,42,96,88,72,30.15,30.02,6,1,11,0.00
2013-2-5,59,54,49,54,51,47,95,89,83,30.15,30.05,4,1,7,0.00
2013-2-6,62,54,46,53,50,44,93,85,70,30.16,30.06,6,1,12,0.00
2013-2-7,61,51,44,52,46,41,92,82,68,30.20,30.03,9,2,13,0.00
2013-2-8,55,50,42,45,41,34,86,71,51,30.03,29.91,12,3,22,0.00
2013-2-9,59,49,39,47,39,33,82,69,52,30.15,29.98,6,1,12,0.00
2013-2-10,59,49,40,47,41,34,88,76,57,30.15,30.07,6,2,12,0.00
2013-2-11,62,49,39,48,40,35,90,71,43,30.30,30.12,7,3,13,0.00
2013-2-12,60,50,41,46,38,32,76,64,39,30.40,30.29,6,2,9,0.00
2013-2-13,62,51,41,54,43,35,82,76,53,30.33,30.18,9,3,12,0.00
2013-2-14,64,53,43,55,45,37,86,73,46,30.26,30.12,7,2,13,0.00
2013-2-15,86,68,50,46,34,20,72,32,12,30.23,30.15,6,1,10,0.00
2013-2-16,78,64,52,43,30,21,43,29,13,30.19,30.02,8,1,13,0.00
2013-2-17,62,54,44,55,43,29,90,68,43,30.07,29.97,6,1,10,0.00
2013-2-18,61,55,50,52,49,47,92,81,64,30.11,29.99,4,1,9,0.00
2013-2-19,58,52,47,52,47,37,92,82,64,30.02,29.78,9,2,16,0.24
2013-2-20,64,53,43,44,35,29,69,50,30,30.05,29.78,7,3,14,0.00
2013-2-21,59,50,39,47,38,31,72,63,48,30.16,30.03,6,2,12,0.00
2013-2-22,61,51,41,52,41,31,84,68,39,30.25,30.15,8,2,13,0.00
2013-2-23,65,53,42,54,42,29,83,67,31,30.22,29.94,7,2,12,0.00
2013-2-24,69,54,44,36,31,18,61,44,15,30.26,30.06,7,2,10,0.00
2013-2-25,64,52,42,52,39,27,86,62,34,30.28,30.12,9,2,14,0.00
2013-2-26,70,54,40,50,37,29,82,57,23,30.18,30.05,8,2,10,0.00
2013-2-27,74,59,48,37,25,20,44,29,14,30.34,30.17,8,2,16,0.00
2013-2-28,74,58,46,53,36,26,82,46,20,30.38,30.28,9,3,15,0.00